createdAt,value
2023-04-12T00:01:24.637Z,4.74
2023-04-12T00:03:51.558Z,4.78
2023-04-12T00:06:18.322Z,4.69
2023-04-12T00:08:44.970Z,4.71
2023-04-12T00:11:11.605Z,4.65
2023-04-12T00:13:38.676Z,4.75
2023-04-12T00:16:05.820Z,4.62
2023-04-12T00:18:32.696Z,4.66
2023-04-12T00:20:59.300Z,4.65
2023-04-12T00:23:26.155Z,4.72
2023-04-12T00:25:52.826Z,4.70
2023-04-12T00:28:19.468Z,4.64
2023-04-12T00:30:46.208Z,4.63
2023-04-12T00:33:12.907Z,4.66
2023-04-12T00:35:39.642Z,4.65
2023-04-12T00:38:06.427Z,4.68
2023-04-12T00:40:33.084Z,4.44
2023-04-12T00:43:00.606Z,4.70
2023-04-12T00:45:30.288Z,4.78
2023-04-12T00:47:57.027Z,4.62
2023-04-12T00:50:23.776Z,4.48
2023-04-12T00:52:50.589Z,4.66
2023-04-12T00:55:17.687Z,4.51
2023-04-12T00:57:44.332Z,4.64
2023-04-12T01:00:11.836Z,4.57
2023-04-12T01:02:41.759Z,4.34
2023-04-12T01:05:09.441Z,4.37
2023-04-12T01:07:48.105Z,4.27
2023-04-12T01:10:26.308Z,4.39
2023-04-12T01:13:14.600Z,4.42
2023-04-12T01:16:02.093Z,4.48
2023-04-12T01:18:30.894Z,4.36
2023-04-12T01:21:05.706Z,4.53
2023-04-12T01:23:52.178Z,4.60
2023-04-12T01:26:21.901Z,4.58
2023-04-12T01:28:53.137Z,4.19
2023-04-12T01:31:21.290Z,4.32
2023-04-12T01:33:50.942Z,4.25
2023-04-12T01:36:21.784Z,4.21
2023-04-12T01:38:49.907Z,4.44
2023-04-12T01:41:16.770Z,4.41
2023-04-12T01:43:45.591Z,4.08
2023-04-12T01:46:14.718Z,4.14
2023-04-12T01:48:49.953Z,4.25
2023-04-12T01:51:27.897Z,4.13
2023-04-12T01:54:01.018Z,4.48
2023-04-12T01:56:31.444Z,4.42
2023-04-12T01:58:59.914Z,4.19
2023-04-12T02:01:28.273Z,4.30
2023-04-12T02:03:57.920Z,4.48
2023-04-12T02:06:26.320Z,4.20
2023-04-12T02:09:06.468Z,4.35
2023-04-12T02:11:33.328Z,4.43
2023-04-12T02:14:00.080Z,4.54
2023-04-12T02:16:27.421Z,4.59
2023-04-12T02:18:54.032Z,4.46
2023-04-12T02:21:20.807Z,4.38
2023-04-12T02:23:47.414Z,4.41
2023-04-12T02:26:14.003Z,4.71
2023-04-12T02:28:40.620Z,4.60
2023-04-12T02:31:07.482Z,4.66
2023-04-12T02:33:34.478Z,4.33
2023-04-12T02:36:01.922Z,4.28
2023-04-12T02:38:29.096Z,4.31
2023-04-12T02:40:55.729Z,4.05
2023-04-12T02:43:22.573Z,4.07
2023-04-12T02:45:52.375Z,3.95
2023-04-12T02:48:19.009Z,3.83
2023-04-12T02:50:45.643Z,3.85
2023-04-12T02:53:12.261Z,3.72
2023-04-12T02:55:38.976Z,3.90
2023-04-12T02:58:05.727Z,4.02
2023-04-12T03:00:32.347Z,3.97
2023-04-12T03:03:00.914Z,4.02
2023-04-12T03:05:27.599Z,3.81
2023-04-12T03:07:54.487Z,3.93
2023-04-12T03:10:21.315Z,3.87
2023-04-12T03:12:47.939Z,3.66
2023-04-12T03:15:14.668Z,3.77
2023-04-12T03:17:41.526Z,3.78
2023-04-12T03:20:09.508Z,3.72
2023-04-12T03:22:37.064Z,3.79
2023-04-12T03:25:05.160Z,3.83
2023-04-12T03:27:32.064Z,3.95
2023-04-12T03:29:58.774Z,3.60
2023-04-12T03:32:25.461Z,3.80
2023-04-12T03:34:52.163Z,3.82
2023-04-12T03:37:19.048Z,3.62
2023-04-12T03:39:45.694Z,3.74
2023-04-12T03:42:25.412Z,3.71
2023-04-12T03:44:58.908Z,3.70
2023-04-12T03:47:25.640Z,3.48
2023-04-12T03:50:09.635Z,3.64
2023-04-12T03:52:38.309Z,3.56
2023-04-12T03:55:05.363Z,3.24
2023-04-12T03:57:32.126Z,3.37
2023-04-12T03:59:58.850Z,3.55
2023-04-12T04:02:27.711Z,3.59
2023-04-12T04:04:54.656Z,3.46
2023-04-12T04:07:23.048Z,3.55
2023-04-12T04:09:49.734Z,3.47
2023-04-12T04:12:16.324Z,3.31
2023-04-12T04:14:43.069Z,3.28
2023-04-12T04:17:09.725Z,3.32
2023-04-12T04:19:36.339Z,3.58
2023-04-12T04:22:02.927Z,3.85
2023-04-12T04:24:29.539Z,3.60
2023-04-12T04:26:56.186Z,3.59
2023-04-12T04:29:22.866Z,3.33
2023-04-12T04:31:49.594Z,3.42
2023-04-12T04:34:16.320Z,3.41
2023-04-12T04:36:43.021Z,3.64
2023-04-12T04:39:09.743Z,3.45
2023-04-12T04:41:36.362Z,3.34
2023-04-12T04:44:02.999Z,3.37
2023-04-12T04:46:29.748Z,3.34
2023-04-12T04:48:56.753Z,3.17
2023-04-12T04:51:23.419Z,3.41
2023-04-12T04:53:50.035Z,3.41
2023-04-12T04:56:16.637Z,3.42
2023-04-12T04:58:46.414Z,3.54
2023-04-12T05:01:13.138Z,3.45
2023-04-12T05:03:39.945Z,3.36
2023-04-12T05:06:06.961Z,3.37
2023-04-12T05:08:33.540Z,3.57
2023-04-12T05:11:00.178Z,3.56
2023-04-12T05:13:26.981Z,3.62
2023-04-12T05:15:53.702Z,3.64
2023-04-12T05:18:20.712Z,3.72
2023-04-12T05:20:47.366Z,3.97
2023-04-12T05:23:14.940Z,3.99
2023-04-12T05:25:45.840Z,4.22
2023-04-12T05:28:13.738Z,4.20
2023-04-12T05:30:40.745Z,4.32
2023-04-12T05:33:07.430Z,4.57
2023-04-12T05:35:34.240Z,4.33
2023-04-12T05:38:01.059Z,4.29
2023-04-12T05:40:27.680Z,4.44
2023-04-12T05:42:54.485Z,4.64
2023-04-12T05:45:21.080Z,4.63
2023-04-12T05:47:47.809Z,4.75
2023-04-12T05:50:14.681Z,5.11
2023-04-12T05:52:41.325Z,4.95
2023-04-12T05:55:08.265Z,4.95
2023-04-12T05:57:34.974Z,5.12
2023-04-12T06:00:01.639Z,5.15
2023-04-12T06:02:28.451Z,5.16
2023-04-12T06:04:55.541Z,5.59
2023-04-12T06:07:22.825Z,5.52
2023-04-12T06:09:49.451Z,5.68
2023-04-12T06:12:16.206Z,5.76
2023-04-12T06:14:42.939Z,5.82
2023-04-12T06:17:09.536Z,5.76
2023-04-12T06:19:36.161Z,5.90
2023-04-12T06:22:02.908Z,5.87
2023-04-12T06:24:29.535Z,5.88
2023-04-12T06:26:56.167Z,6.00
2023-04-12T06:29:22.848Z,6.05
2023-04-12T06:31:49.467Z,6.10
2023-04-12T06:34:16.108Z,6.27
2023-04-12T06:36:42.837Z,6.12
2023-04-12T06:39:09.729Z,6.20
2023-04-12T06:41:36.384Z,5.96
2023-04-12T06:44:02.974Z,6.24
2023-04-12T06:46:29.684Z,6.24
2023-04-12T06:48:56.569Z,6.26
2023-04-12T06:51:23.314Z,6.30
2023-04-12T06:53:49.905Z,6.34
2023-04-12T06:56:18.444Z,6.41
2023-04-12T06:58:45.837Z,6.51
2023-04-12T07:01:12.716Z,6.69
2023-04-12T07:03:39.731Z,6.75
2023-04-12T07:06:17.757Z,6.69
2023-04-12T07:08:50.807Z,6.65
2023-04-12T07:11:21.506Z,6.63
2023-04-12T07:13:49.364Z,6.83
2023-04-12T07:16:16.614Z,6.93
2023-04-12T07:18:43.223Z,7.03
2023-04-12T07:21:10.058Z,7.13
2023-04-12T07:23:36.789Z,7.39
2023-04-12T07:26:03.462Z,7.72
2023-04-12T07:28:30.114Z,7.36
2023-04-12T07:30:56.732Z,7.38
2023-04-12T07:33:25.871Z,7.37
2023-04-12T07:35:52.568Z,7.57
2023-04-12T07:38:19.569Z,7.60
2023-04-12T07:40:49.821Z,7.82
2023-04-12T07:43:16.937Z,7.76
2023-04-12T07:45:43.700Z,7.97
2023-04-12T07:48:10.430Z,8.00
2023-04-12T07:50:37.258Z,8.15
2023-04-12T07:53:24.803Z,8.22
2023-04-12T07:55:51.554Z,8.22
2023-04-12T07:58:19.514Z,8.14
2023-04-12T08:00:46.964Z,8.30
2023-04-12T08:03:16.022Z,8.16
2023-04-12T08:05:43.593Z,8.20
2023-04-12T08:08:10.777Z,8.36
2023-04-12T08:10:40.200Z,8.34
2023-04-12T08:13:07.541Z,8.38
2023-04-12T08:15:34.511Z,8.31
2023-04-12T08:18:02.426Z,8.21
2023-04-12T08:20:29.932Z,8.44
2023-04-12T08:22:56.809Z,8.69
2023-04-12T08:25:23.539Z,8.81
2023-04-12T08:27:51.161Z,8.90
2023-04-12T08:30:18.165Z,9.04
2023-04-12T08:32:45.032Z,9.02
2023-04-12T08:35:11.727Z,9.32
2023-04-12T08:37:38.506Z,9.47
2023-04-12T08:40:08.601Z,9.19
2023-04-12T08:42:35.994Z,9.44
2023-04-12T08:45:06.794Z,9.72
2023-04-12T08:47:39.552Z,9.47
2023-04-12T08:50:07.364Z,9.65
2023-04-12T08:52:34.332Z,9.54
2023-04-12T08:55:10.490Z,9.41
2023-04-12T08:57:40.553Z,9.63
2023-04-12T09:00:11.030Z,9.32
2023-04-12T09:02:39.127Z,9.76
2023-04-12T09:05:07.384Z,9.65
2023-04-12T09:07:34.329Z,9.73
2023-04-12T09:10:01.126Z,10.20
2023-04-12T09:12:28.046Z,10.43
2023-04-12T09:15:13.832Z,10.07
2023-04-12T09:17:42.463Z,10.25
2023-04-12T09:20:12.502Z,10.35
2023-04-12T09:22:39.430Z,10.28
2023-04-12T09:25:06.595Z,10.58
2023-04-12T09:27:46.950Z,10.53
2023-04-12T09:30:15.898Z,10.79
2023-04-12T09:32:42.965Z,10.58
2023-04-12T09:35:10.005Z,10.72
2023-04-12T09:37:36.846Z,11.15
2023-04-12T09:40:06.670Z,11.12
2023-04-12T09:42:35.024Z,10.71
2023-04-12T09:45:25.465Z,11.08
2023-04-12T09:47:53.007Z,10.83
2023-04-12T09:50:30.304Z,11.45
2023-04-12T09:52:58.062Z,11.32
2023-04-12T09:55:27.436Z,11.11
2023-04-12T09:57:56.717Z,11.48
2023-04-12T10:00:24.347Z,11.44
2023-04-12T10:02:53.589Z,11.53
2023-04-12T10:05:22.391Z,11.43
2023-04-12T10:07:49.890Z,11.51
2023-04-12T10:10:18.559Z,11.51
2023-04-12T10:12:47.980Z,11.44
2023-04-12T10:15:16.180Z,12.18
2023-04-12T10:17:45.723Z,11.97
2023-04-12T10:20:17.317Z,11.99
2023-04-12T10:22:49.416Z,12.29
2023-04-12T10:25:24.163Z,12.03
2023-04-12T10:27:51.123Z,12.00
2023-04-12T10:30:27.800Z,12.51
2023-04-12T10:33:03.652Z,12.16
2023-04-12T10:35:56.082Z,12.02
2023-04-12T10:38:24.125Z,12.14
2023-04-12T10:41:15.686Z,12.56
2023-04-12T10:43:44.354Z,12.45
2023-04-12T10:46:36.076Z,12.04
2023-04-12T10:49:12.759Z,11.69
2023-04-12T10:51:40.183Z,11.84
2023-04-12T10:54:18.862Z,11.81
2023-04-12T10:56:46.911Z,12.30
2023-04-12T10:59:14.908Z,12.47
2023-04-12T11:02:03.088Z,12.28
2023-04-12T11:04:30.318Z,12.69
2023-04-12T11:06:59.839Z,13.05
2023-04-12T11:09:34.279Z,12.86
2023-04-12T11:12:03.628Z,12.82
2023-04-12T11:14:38.775Z,13.07
2023-04-12T11:17:08.187Z,13.03
2023-04-12T11:19:40.915Z,13.08
2023-04-12T11:22:10.558Z,13.05
2023-04-12T11:24:40.760Z,13.18
2023-04-12T11:27:08.629Z,13.07
2023-04-12T11:29:35.521Z,13.02
2023-04-12T11:32:12.046Z,13.16
2023-04-12T11:34:38.867Z,13.03
2023-04-12T11:37:09.889Z,12.93
2023-04-12T11:39:44.338Z,12.84
2023-04-12T11:42:19.265Z,13.03
2023-04-12T11:47:19.630Z,13.05
2023-04-12T11:49:48.517Z,13.32
2023-04-12T11:52:16.546Z,13.45
2023-04-12T11:54:50.936Z,13.45
2023-04-12T11:57:19.118Z,13.45
2023-04-12T11:59:47.182Z,13.29
2023-04-12T12:02:22.574Z,13.03
2023-04-12T12:04:51.340Z,13.46
2023-04-12T12:07:19.333Z,13.45
2023-04-12T12:09:46.564Z,13.59
2023-04-12T12:12:14.008Z,13.43
2023-04-12T12:14:43.819Z,13.45
2023-04-12T12:17:14.462Z,13.17
2023-04-12T12:19:43.493Z,13.67
2023-04-12T12:22:21.317Z,13.73
2023-04-12T12:24:58.339Z,13.48
2023-04-12T12:27:34.517Z,13.28
2023-04-12T12:30:02.324Z,13.34
2023-04-12T12:32:37.126Z,13.48
2023-04-12T12:35:09.197Z,13.76
2023-04-12T12:37:36.294Z,13.77
2023-04-12T12:40:11.459Z,13.97
2023-04-12T12:42:51.276Z,13.81
2023-04-12T12:45:20.125Z,14.07
2023-04-12T12:48:00.030Z,13.88
2023-04-12T12:50:29.568Z,14.06
2023-04-12T12:52:57.042Z,14.26
2023-04-12T12:55:24.685Z,14.54
2023-04-12T12:58:07.582Z,14.10
2023-04-12T13:00:35.444Z,13.86
2023-04-12T13:03:04.733Z,13.80
2023-04-12T13:05:31.693Z,14.11
2023-04-12T13:07:58.454Z,14.12
2023-04-12T13:10:25.092Z,14.28
2023-04-12T13:12:51.747Z,14.45
2023-04-12T13:15:22.935Z,14.60
2023-04-12T13:17:54.473Z,14.22
2023-04-12T13:20:25.942Z,14.25
2023-04-12T13:22:52.610Z,14.35
2023-04-12T13:25:19.807Z,14.59
2023-04-12T13:27:48.212Z,14.74
2023-04-12T13:30:15.131Z,14.65
2023-04-12T13:32:41.830Z,14.60
2023-04-12T13:35:08.851Z,14.46
2023-04-12T13:37:35.578Z,14.04
2023-04-12T13:40:03.033Z,14.29
2023-04-12T13:42:29.753Z,13.67
2023-04-12T13:44:56.878Z,14.18
2023-04-12T13:47:23.722Z,14.59
2023-04-12T13:49:50.562Z,14.72
2023-04-12T13:52:17.216Z,14.88
2023-04-12T13:54:43.921Z,14.90
2023-04-12T13:57:10.679Z,14.46
2023-04-12T13:59:37.326Z,14.59
2023-04-12T14:02:04.169Z,14.81
2023-04-12T14:04:31.649Z,14.85
2023-04-12T14:07:00.023Z,14.80
2023-04-12T14:09:27.927Z,14.58
2023-04-12T14:11:56.080Z,14.47
2023-04-12T14:14:23.543Z,14.43
2023-04-12T14:16:51.736Z,14.68
2023-04-12T14:19:18.456Z,15.11
2023-04-12T14:21:45.138Z,15.44
2023-04-12T14:24:11.836Z,15.20
2023-04-12T14:26:39.072Z,15.01
2023-04-12T14:29:09.327Z,14.53
2023-04-12T14:31:36.152Z,14.26
2023-04-12T14:34:04.434Z,14.38
2023-04-12T14:36:32.101Z,13.85
2023-04-12T14:39:00.959Z,14.18
2023-04-12T14:41:27.635Z,14.43
2023-04-12T14:43:54.311Z,14.77
2023-04-12T14:46:21.135Z,14.22
2023-04-12T14:48:47.814Z,14.52
2023-04-12T14:51:14.582Z,15.07
2023-04-12T14:53:41.323Z,15.08
2023-04-12T14:56:23.219Z,15.44
2023-04-12T14:58:54.315Z,15.27
2023-04-12T15:01:22.665Z,14.73
2023-04-12T15:03:50.276Z,15.20
2023-04-12T15:06:17.855Z,15.59
2023-04-12T15:08:44.528Z,16.00
2023-04-12T15:11:12.160Z,15.93
2023-04-12T15:13:39.797Z,15.31
2023-04-12T15:16:09.112Z,14.99
2023-04-12T15:18:39.440Z,15.29
2023-04-12T15:21:07.772Z,16.29
2023-04-12T15:23:35.101Z,16.76
2023-04-12T15:26:02.242Z,16.45
2023-04-12T15:28:33.060Z,16.14
2023-04-12T15:30:59.856Z,17.52
2023-04-12T15:33:26.762Z,17.80
2023-04-12T15:35:54.592Z,17.27
2023-04-12T15:38:23.881Z,17.54
2023-04-12T15:40:55.665Z,16.80
2023-04-12T15:43:23.672Z,16.15
2023-04-12T15:45:51.741Z,15.31
2023-04-12T15:48:19.497Z,14.80
2023-04-12T15:50:46.829Z,14.33
2023-04-12T15:53:15.322Z,15.60
2023-04-12T15:55:46.722Z,16.32
2023-04-12T15:58:14.021Z,16.51
2023-04-12T16:00:40.771Z,16.57
2023-04-12T16:03:07.689Z,16.29
2023-04-12T16:05:34.889Z,17.09
2023-04-12T16:08:02.143Z,16.36
2023-04-12T16:10:28.983Z,15.47
2023-04-12T16:12:56.626Z,15.20
2023-04-12T16:15:23.528Z,15.43
2023-04-12T16:17:50.810Z,15.68
2023-04-12T16:20:17.835Z,15.17
2023-04-12T16:22:45.590Z,14.52
2023-04-12T16:25:12.298Z,13.94
2023-04-12T16:27:38.975Z,14.35
2023-04-12T16:30:06.444Z,14.46
2023-04-12T16:32:33.454Z,13.83
2023-04-12T16:35:00.407Z,14.05
2023-04-12T16:37:28.821Z,14.56
2023-04-12T16:39:55.603Z,14.40
2023-04-12T16:42:23.083Z,14.76
2023-04-12T16:44:51.481Z,15.14
2023-04-12T16:47:23.477Z,14.81
2023-04-12T16:49:50.501Z,14.65
2023-04-12T16:52:17.254Z,13.81
2023-04-12T16:54:44.411Z,14.43
2023-04-12T16:57:12.145Z,13.46
2023-04-12T16:59:40.135Z,13.19
2023-04-12T17:02:06.954Z,13.22
2023-04-12T17:04:33.758Z,13.25
2023-04-12T17:07:03.447Z,13.63
2023-04-12T17:09:30.203Z,13.71
2023-04-12T17:11:57.050Z,13.49
2023-04-12T17:14:23.725Z,13.36
2023-04-12T17:16:50.377Z,13.69
2023-04-12T17:19:17.128Z,13.53
2023-04-12T17:21:43.982Z,14.07
2023-04-12T17:24:10.702Z,13.80
2023-04-12T17:26:40.178Z,13.24
2023-04-12T17:29:06.922Z,13.41
2023-04-12T17:31:36.477Z,13.11
2023-04-12T17:34:03.121Z,12.22
2023-04-12T17:36:29.992Z,12.32
2023-04-12T17:38:57.356Z,12.24
2023-04-12T17:41:24.037Z,12.28
2023-04-12T17:43:50.637Z,12.31
2023-04-12T17:46:17.295Z,12.42
2023-04-12T17:48:43.947Z,12.51
2023-04-12T17:51:10.552Z,12.49
2023-04-12T17:53:37.164Z,12.45
2023-04-12T17:56:03.887Z,12.39
2023-04-12T17:58:30.963Z,12.16
2023-04-12T18:00:58.170Z,11.94
2023-04-12T18:03:25.193Z,11.62
2023-04-12T18:05:51.959Z,11.57
2023-04-12T18:08:18.813Z,11.60
2023-04-12T18:10:45.454Z,11.81
2023-04-12T18:13:12.089Z,11.78
2023-04-12T18:15:38.880Z,11.47
2023-04-12T18:18:05.771Z,11.45
2023-04-12T18:20:32.653Z,11.38
2023-04-12T18:22:59.594Z,11.21
2023-04-12T18:25:26.341Z,11.25
2023-04-12T18:27:53.341Z,11.09
2023-04-12T18:30:20.160Z,11.14
2023-04-12T18:32:46.902Z,11.06
2023-04-12T18:35:13.748Z,11.04
2023-04-12T18:37:40.505Z,10.93
2023-04-12T18:40:07.577Z,10.79
2023-04-12T18:42:34.290Z,10.70
2023-04-12T18:45:01.043Z,10.63
2023-04-12T18:47:27.921Z,10.55
2023-04-12T18:49:55.231Z,10.24
2023-04-12T18:52:21.926Z,10.07
2023-04-12T18:54:48.589Z,10.02
2023-04-12T18:57:15.688Z,9.78
2023-04-12T18:59:42.429Z,9.55
2023-04-12T19:02:09.123Z,9.95
2023-04-12T19:04:35.989Z,10.25
2023-04-12T19:07:02.605Z,10.21
2023-04-12T19:09:29.242Z,10.03
2023-04-12T19:11:55.949Z,10.13
2023-04-12T19:14:22.838Z,9.98
2023-04-12T19:16:52.743Z,9.84
2023-04-12T19:19:19.451Z,9.66
2023-04-12T19:21:46.124Z,9.55
2023-04-12T19:24:13.080Z,9.29
2023-04-12T19:26:39.747Z,9.31
2023-04-12T19:29:06.640Z,9.24
2023-04-12T19:31:33.387Z,9.61
2023-04-12T19:34:00.180Z,9.67
2023-04-12T19:36:26.995Z,9.47
2023-04-12T19:38:53.636Z,9.63
2023-04-12T19:41:20.674Z,9.44
2023-04-12T19:43:47.507Z,9.49
2023-04-12T19:46:14.335Z,9.42
2023-04-12T19:48:41.037Z,9.40
2023-04-12T19:51:07.709Z,9.15
2023-04-12T19:53:34.416Z,8.81
2023-04-12T19:56:01.168Z,8.77
2023-04-12T19:58:27.799Z,8.81
2023-04-12T20:00:54.611Z,8.83
2023-04-12T20:03:21.448Z,9.01
2023-04-12T20:05:48.109Z,9.12
2023-04-12T20:08:15.000Z,8.97
2023-04-12T20:10:42.121Z,8.94
2023-04-12T20:13:08.759Z,8.80
2023-04-12T20:15:35.477Z,8.61
2023-04-12T20:18:02.286Z,8.51
2023-04-12T20:20:29.087Z,8.57
2023-04-12T20:22:55.725Z,8.68
2023-04-12T20:25:22.432Z,8.80
2023-04-12T20:27:49.035Z,8.92
2023-04-12T20:30:15.665Z,8.86
2023-04-12T20:32:42.338Z,8.59
2023-04-12T20:35:09.769Z,8.65
2023-04-12T20:37:36.578Z,8.58
2023-04-12T20:40:03.323Z,8.62
2023-04-12T20:42:29.958Z,8.63
2023-04-12T20:44:56.811Z,8.55
2023-04-12T20:47:23.464Z,8.74
2023-04-12T20:49:50.075Z,8.55
2023-04-12T20:52:16.790Z,8.49
2023-04-12T20:54:43.433Z,8.39
2023-04-12T20:57:10.223Z,8.27
2023-04-12T20:59:37.034Z,8.12
2023-04-12T21:02:03.948Z,7.99
2023-04-12T21:04:33.074Z,8.05
2023-04-12T21:06:59.810Z,8.04
2023-04-12T21:09:26.450Z,7.71
2023-04-12T21:11:53.120Z,7.85
2023-04-12T21:14:20.382Z,7.83
2023-04-12T21:16:47.488Z,7.76
2023-04-12T21:19:17.436Z,7.61
2023-04-12T21:21:45.004Z,7.50
2023-04-12T21:24:11.678Z,7.42
2023-04-12T21:26:38.284Z,7.47
2023-04-12T21:29:04.961Z,7.28
2023-04-12T21:31:31.648Z,7.29
2023-04-12T21:33:58.622Z,7.42
2023-04-12T21:36:26.422Z,7.39
2023-04-12T21:38:53.195Z,7.52
2023-04-12T21:41:19.981Z,7.64
2023-04-12T21:43:46.685Z,7.42
2023-04-12T21:46:13.373Z,7.43
2023-04-12T21:48:40.226Z,7.40
2023-04-12T21:51:07.169Z,7.36
2023-04-12T21:53:33.811Z,7.31
2023-04-12T21:56:00.486Z,7.22
2023-04-12T21:58:27.217Z,7.12
2023-04-12T22:00:54.007Z,7.04
2023-04-12T22:03:20.700Z,7.21
2023-04-12T22:06:00.890Z,7.18
2023-04-12T22:08:30.841Z,7.14
2023-04-12T22:10:57.434Z,7.10
2023-04-12T22:13:24.066Z,7.00
2023-04-12T22:15:51.006Z,6.96
2023-04-12T22:18:17.669Z,6.93
2023-04-12T22:20:44.540Z,6.85
2023-04-12T22:23:11.228Z,6.72
2023-04-12T22:25:40.422Z,7.03
2023-04-12T22:28:07.132Z,7.07
2023-04-12T22:30:33.766Z,6.93
2023-04-12T22:33:00.422Z,6.90
2023-04-12T22:35:27.123Z,6.98
2023-04-12T22:37:53.896Z,7.02
2023-04-12T22:40:20.614Z,6.98
2023-04-12T22:42:48.385Z,6.68
2023-04-12T22:45:16.637Z,6.92
2023-04-12T22:47:45.940Z,6.87
2023-04-12T22:50:13.034Z,6.83
2023-04-12T22:52:40.076Z,7.14
2023-04-12T22:55:11.171Z,6.98
2023-04-12T22:57:37.810Z,6.73
2023-04-12T23:00:05.450Z,6.90
2023-04-12T23:02:32.662Z,6.91
2023-04-12T23:05:00.054Z,6.92
2023-04-12T23:07:26.965Z,6.86
2023-04-12T23:09:53.669Z,6.84
2023-04-12T23:12:20.303Z,6.77
2023-04-12T23:14:46.950Z,6.73
2023-04-12T23:17:13.892Z,6.80
2023-04-12T23:19:40.610Z,7.08
2023-04-12T23:22:07.273Z,6.94
2023-04-12T23:24:33.933Z,6.59
2023-04-12T23:27:00.734Z,6.67
2023-04-12T23:29:27.432Z,6.66
2023-04-12T23:31:54.059Z,6.68
2023-04-12T23:34:20.733Z,6.62
2023-04-12T23:36:48.059Z,6.77
2023-04-12T23:39:14.706Z,6.85
2023-04-12T23:41:41.284Z,6.79
2023-04-12T23:44:07.995Z,6.88
2023-04-12T23:46:34.611Z,6.95
2023-04-12T23:49:01.301Z,6.83
2023-04-12T23:51:27.945Z,6.84
2023-04-12T23:53:54.566Z,7.16
2023-04-12T23:56:21.447Z,6.87
2023-04-12T23:58:48.191Z,7.04
